Terminal Aerodrome Forecast
Issued by NWS

Home | Current Version | Previous Version | Text Only | Print | Product List | Glossary On
Versions: 1 2 3 4 5 6 7 8 9 10 11 12 13 14 15 16 17 18
000
FTUS44 KCRP 210523
TAFALI
TAF
KALI 210523Z 2106/2206 VRB05KT P6SM SCT020 OVC150
      TEMPO 2111/2115 -RA BKN020 OVC100
     FM211500 10008KT P6SM VCSH BKN028 OVC035
     FM212200 12014KT P6SM VCSH BKN040
     FM220300 12008KT P6SM BKN025=

USA.gov is the U.S. government's official web portal to all federal, state and local government web resources and services.